WAT4431 HTDA-FMCZ
Flight info
| Callsign | WAT4431 |
|---|---|
| Flight time | 1h 19m |
| Altitude | 37000 |
| Route | DUDNA1D KISIR DCT HAI |
| Aircraft | B737/M-SDE2E3FGHIRWXY/LB1 |
Departure
| Time | 2026-04-14 20:49 |
|---|---|
| Airport | Julius Nyerere International Airport (HTDA) |
Arrival
| Time | 2026-04-14 22:09 |
|---|---|
| Airport | Dzaoudzi Pamandzi International Airport (FMCZ) |
| Time | Latitude | Longitude | Altitude | Speed | Heading |
|---|---|---|---|---|---|
| 2026-04-14 20:49 | -6.97985 | 39.17207 | 7437 ft | 276 kts | 179° |
| 2026-04-14 20:49 | -6.99911 | 39.17153 | 7796 ft | 278 kts | 179° |
| 2026-04-14 20:50 | -7.01854 | 39.17083 | 7938 ft | 280 kts | 180° |
| 2026-04-14 20:50 | -7.03805 | 39.17003 | 7946 ft | 281 kts | 180° |
| 2026-04-14 20:50 | -7.05757 | 39.16917 | 7961 ft | 280 kts | 180° |
| 2026-04-14 20:50 | -7.07704 | 39.16829 | 7960 ft | 281 kts | 180° |
| 2026-04-14 20:51 | -7.09658 | 39.16739 | 7960 ft | 281 kts | 180° |
| 2026-04-14 20:51 | -7.11609 | 39.16647 | 7960 ft | 281 kts | 180° |
| 2026-04-14 20:51 | -7.13560 | 39.16555 | 7958 ft | 281 kts | 180° |
| 2026-04-14 20:51 | -7.15517 | 39.16463 | 7957 ft | 281 kts | 180° |
| 2026-04-14 20:52 | -7.17468 | 39.16370 | 7951 ft | 281 kts | 180° |
| 2026-04-14 20:52 | -7.19422 | 39.16278 | 7960 ft | 281 kts | 180° |
| 2026-04-14 20:52 | -7.21379 | 39.16183 | 8004 ft | 284 kts | 180° |
| 2026-04-14 20:52 | -7.23370 | 39.16079 | 8772 ft | 287 kts | 180° |
| 2026-04-14 20:53 | -7.25362 | 39.15974 | 9961 ft | 287 kts | 180° |
| 2026-04-14 20:53 | -7.27398 | 39.15867 | 10698 ft | 303 kts | 180° |
| 2026-04-14 20:53 | -7.29612 | 39.15755 | 10927 ft | 334 kts | 180° |
| 2026-04-14 20:53 | -7.32002 | 39.15632 | 11459 ft | 351 kts | 180° |
| 2026-04-14 20:54 | -7.34463 | 39.15502 | 12277 ft | 357 kts | 180° |
| 2026-04-14 20:54 | -7.36954 | 39.15369 | 13176 ft | 360 kts | 180° |
| 2026-04-14 20:54 | -7.39447 | 39.15236 | 13966 ft | 366 kts | 180° |
| 2026-04-14 20:54 | -7.42008 | 39.15101 | 14692 ft | 371 kts | 180° |
| 2026-04-14 20:55 | -7.44601 | 39.14964 | 15442 ft | 375 kts | 180° |
| 2026-04-14 20:55 | -7.47226 | 39.14826 | 16188 ft | 380 kts | 181° |
| 2026-04-14 20:55 | -7.49877 | 39.14686 | 16915 ft | 384 kts | 181° |
| 2026-04-14 20:55 | -7.52566 | 39.14545 | 17618 ft | 389 kts | 181° |
| 2026-04-14 20:56 | -7.55286 | 39.14403 | 18305 ft | 394 kts | 181° |
| 2026-04-14 20:56 | -7.58038 | 39.14260 | 18900 ft | 398 kts | 181° |
| 2026-04-14 20:56 | -7.60811 | 39.14122 | 19528 ft | 400 kts | 181° |
| 2026-04-14 20:56 | -7.63605 | 39.13989 | 20155 ft | 403 kts | 181° |
| 2026-04-14 20:57 | -7.66416 | 39.13860 | 20764 ft | 406 kts | 181° |
| 2026-04-14 20:57 | -7.69253 | 39.13736 | 21352 ft | 409 kts | 181° |
| 2026-04-14 20:57 | -7.71141 | 39.13657 | 21711 ft | 412 kts | 181° |
| 2026-04-14 20:57 | -7.74011 | 39.13712 | 22238 ft | 414 kts | 168° |
| 2026-04-14 20:58 | -7.76675 | 39.14762 | 22788 ft | 414 kts | 145° |
| 2026-04-14 20:58 | -7.78727 | 39.16774 | 23407 ft | 415 kts | 124° |
| 2026-04-14 20:58 | -7.79942 | 39.19427 | 23744 ft | 422 kts | 107° |
| 2026-04-14 20:58 | -7.80811 | 39.22273 | 24101 ft | 427 kts | 109° |
| 2026-04-14 20:59 | -7.81755 | 39.25128 | 24499 ft | 430 kts | 110° |
| 2026-04-14 20:59 | -7.82737 | 39.27985 | 24935 ft | 432 kts | 111° |
| 2026-04-14 20:59 | -7.83744 | 39.30856 | 25312 ft | 436 kts | 111° |
| 2026-04-14 20:59 | -7.84768 | 39.33749 | 25656 ft | 441 kts | 111° |
| 2026-04-14 21:00 | -7.85805 | 39.36672 | 26026 ft | 444 kts | 111° |
| 2026-04-14 21:00 | -7.86847 | 39.39609 | 26409 ft | 446 kts | 111° |
| 2026-04-14 21:00 | -7.87896 | 39.42568 | 26776 ft | 449 kts | 111° |
| 2026-04-14 21:00 | -7.88949 | 39.45546 | 27134 ft | 453 kts | 111° |
| 2026-04-14 21:01 | -7.90010 | 39.48547 | 27484 ft | 456 kts | 111° |
| 2026-04-14 21:01 | -7.91076 | 39.51568 | 27836 ft | 458 kts | 111° |
| 2026-04-14 21:01 | -7.92148 | 39.54605 | 28176 ft | 461 kts | 111° |
| 2026-04-14 21:01 | -7.93226 | 39.57662 | 28511 ft | 464 kts | 111° |
| 2026-04-14 21:02 | -7.94311 | 39.60738 | 28838 ft | 467 kts | 111° |
| 2026-04-14 21:02 | -7.95401 | 39.63832 | 29149 ft | 470 kts | 111° |
| 2026-04-14 21:02 | -7.96500 | 39.66948 | 29459 ft | 472 kts | 112° |
| 2026-04-14 21:02 | -7.97602 | 39.70075 | 29761 ft | 475 kts | 112° |
| 2026-04-14 21:03 | -7.98711 | 39.73223 | 30052 ft | 477 kts | 112° |
| 2026-04-14 21:03 | -7.99825 | 39.76386 | 30302 ft | 480 kts | 112° |
| 2026-04-14 21:03 | -8.00943 | 39.79562 | 30564 ft | 481 kts | 112° |
| 2026-04-14 21:03 | -8.02065 | 39.82751 | 30835 ft | 483 kts | 112° |
| 2026-04-14 21:04 | -8.03187 | 39.85940 | 31187 ft | 482 kts | 112° |
| 2026-04-14 21:04 | -8.04306 | 39.89124 | 31595 ft | 480 kts | 112° |
| 2026-04-14 21:04 | -8.05420 | 39.92293 | 32012 ft | 479 kts | 112° |
| 2026-04-14 21:04 | -8.06533 | 39.95458 | 32399 ft | 478 kts | 112° |
| 2026-04-14 21:05 | -8.07644 | 39.98620 | 32790 ft | 478 kts | 112° |
| 2026-04-14 21:05 | -8.08741 | 40.01739 | 33186 ft | 478 kts | 112° |
| 2026-04-14 21:05 | -8.09863 | 40.04935 | 33631 ft | 476 kts | 112° |
| 2026-04-14 21:05 | -8.10950 | 40.08032 | 34082 ft | 474 kts | 112° |
| 2026-04-14 21:06 | -8.12050 | 40.11164 | 34455 ft | 473 kts | 112° |
| 2026-04-14 21:06 | -8.13148 | 40.14293 | 34772 ft | 473 kts | 112° |
| 2026-04-14 21:06 | -8.14246 | 40.17420 | 35084 ft | 473 kts | 112° |
| 2026-04-14 21:06 | -8.15343 | 40.20548 | 35415 ft | 472 kts | 112° |
| 2026-04-14 21:07 | -8.16524 | 40.23629 | 35726 ft | 469 kts | 119° |
| 2026-04-14 21:07 | -8.18137 | 40.26468 | 36021 ft | 465 kts | 128° |
| 2026-04-14 21:07 | -8.20116 | 40.29029 | 36348 ft | 460 kts | 136° |
| 2026-04-14 21:07 | -8.22409 | 40.31251 | 36660 ft | 456 kts | 141° |
| 2026-04-14 21:08 | -8.24796 | 40.33362 | 36913 ft | 456 kts | 142° |
| 2026-04-14 21:08 | -8.29651 | 40.37582 | 36941 ft | 462 kts | 142° |
| 2026-04-14 21:09 | -8.34486 | 40.41823 | 36930 ft | 457 kts | 142° |
| 2026-04-14 21:09 | -8.39246 | 40.46044 | 36945 ft | 454 kts | 142° |
| 2026-04-14 21:10 | -8.43983 | 40.50264 | 36946 ft | 454 kts | 142° |
| 2026-04-14 21:10 | -8.48710 | 40.54478 | 36943 ft | 453 kts | 142° |
| 2026-04-14 21:11 | -8.53434 | 40.58690 | 36941 ft | 453 kts | 142° |
| 2026-04-14 21:11 | -8.58158 | 40.62903 | 36943 ft | 453 kts | 142° |
| 2026-04-14 21:12 | -8.62856 | 40.67093 | 36951 ft | 454 kts | 142° |
| 2026-04-14 21:12 | -8.67594 | 40.71321 | 36946 ft | 455 kts | 142° |
| 2026-04-14 21:13 | -8.72339 | 40.75556 | 36947 ft | 456 kts | 142° |
| 2026-04-14 21:13 | -8.77095 | 40.79803 | 36945 ft | 456 kts | 142° |
| 2026-04-14 21:14 | -8.84235 | 40.86181 | 36949 ft | 457 kts | 142° |
| 2026-04-14 21:14 | -8.89004 | 40.90444 | 36948 ft | 458 kts | 142° |
| 2026-04-14 21:15 | -8.93775 | 40.94710 | 36950 ft | 457 kts | 142° |
| 2026-04-14 21:15 | -8.98538 | 40.98971 | 36946 ft | 457 kts | 142° |
| 2026-04-14 21:16 | -9.03300 | 41.03231 | 36950 ft | 456 kts | 142° |
| 2026-04-14 21:16 | -9.08049 | 41.07482 | 36951 ft | 456 kts | 142° |
| 2026-04-14 21:17 | -9.12798 | 41.11734 | 36948 ft | 455 kts | 142° |
| 2026-04-14 21:17 | -9.17504 | 41.15949 | 36954 ft | 455 kts | 142° |
| 2026-04-14 21:18 | -9.22239 | 41.20192 | 36949 ft | 454 kts | 142° |
| 2026-04-14 21:18 | -9.26966 | 41.24430 | 36950 ft | 453 kts | 142° |
| 2026-04-14 21:19 | -9.31686 | 41.28662 | 36950 ft | 453 kts | 142° |
| 2026-04-14 21:19 | -9.36400 | 41.32890 | 36954 ft | 453 kts | 142° |
| 2026-04-14 21:20 | -9.41111 | 41.37118 | 36959 ft | 452 kts | 142° |
| 2026-04-14 21:20 | -9.45819 | 41.41345 | 36954 ft | 452 kts | 142° |
| 2026-04-14 21:21 | -9.50523 | 41.45569 | 36954 ft | 452 kts | 142° |
| 2026-04-14 21:21 | -9.55221 | 41.49790 | 36956 ft | 451 kts | 142° |
| 2026-04-14 21:22 | -9.59917 | 41.54010 | 36956 ft | 451 kts | 142° |
| 2026-04-14 21:22 | -9.64616 | 41.58235 | 36960 ft | 451 kts | 142° |
| 2026-04-14 21:23 | -9.69307 | 41.62454 | 36958 ft | 451 kts | 142° |
| 2026-04-14 21:23 | -9.74000 | 41.66677 | 36959 ft | 451 kts | 142° |
| 2026-04-14 21:24 | -9.78662 | 41.70874 | 36959 ft | 451 kts | 142° |
| 2026-04-14 21:24 | -9.83354 | 41.75099 | 36959 ft | 451 kts | 142° |
| 2026-04-14 21:25 | -9.88043 | 41.79324 | 36965 ft | 451 kts | 142° |
| 2026-04-14 21:25 | -9.92731 | 41.83549 | 36958 ft | 451 kts | 142° |
| 2026-04-14 21:26 | -9.97418 | 41.87774 | 36959 ft | 451 kts | 142° |
| 2026-04-14 21:26 | -10.02105 | 41.92002 | 36962 ft | 451 kts | 142° |
| 2026-04-14 21:27 | -10.06790 | 41.96229 | 36963 ft | 451 kts | 142° |
| 2026-04-14 21:27 | -10.11473 | 42.00457 | 36969 ft | 451 kts | 142° |
| 2026-04-14 21:28 | -10.16158 | 42.04687 | 36964 ft | 451 kts | 142° |
| 2026-04-14 21:28 | -10.20843 | 42.08919 | 36968 ft | 451 kts | 142° |
| 2026-04-14 21:29 | -10.25524 | 42.13151 | 36964 ft | 451 kts | 142° |
| 2026-04-14 21:29 | -10.30210 | 42.17388 | 36965 ft | 451 kts | 142° |
| 2026-04-14 21:30 | -10.34892 | 42.21622 | 36971 ft | 451 kts | 143° |
| 2026-04-14 21:30 | -10.39574 | 42.25859 | 36964 ft | 451 kts | 143° |
| 2026-04-14 21:31 | -10.44256 | 42.30098 | 36969 ft | 451 kts | 143° |
| 2026-04-14 21:31 | -10.48941 | 42.34341 | 36966 ft | 451 kts | 143° |
| 2026-04-14 21:32 | -10.53625 | 42.38585 | 36969 ft | 451 kts | 143° |
| 2026-04-14 21:32 | -10.58306 | 42.42828 | 36972 ft | 451 kts | 143° |
| 2026-04-14 21:33 | -10.62988 | 42.47074 | 36972 ft | 451 kts | 143° |
| 2026-04-14 21:33 | -10.67672 | 42.51322 | 38457 ft | 452 kts | 139° |
| 2026-04-14 21:34 | -10.69980 | 42.53417 | 36879 ft | 450 kts | 142° |
| 2026-04-14 21:34 | -10.72316 | 42.55538 | 36959 ft | 452 kts | 142° |
| 2026-04-14 21:34 | -10.77057 | 42.59841 | 36992 ft | 461 kts | 142° |
| 2026-04-14 21:35 | -10.81848 | 42.64192 | 36974 ft | 462 kts | 141° |
| 2026-04-14 21:35 | -10.86632 | 42.68543 | 36980 ft | 461 kts | 141° |
| 2026-04-14 21:36 | -10.91412 | 42.72890 | 36976 ft | 461 kts | 141° |
| 2026-04-14 21:36 | -10.96191 | 42.77238 | 36977 ft | 460 kts | 141° |
| 2026-04-14 21:37 | -11.00961 | 42.81578 | 36979 ft | 460 kts | 141° |
| 2026-04-14 21:37 | -11.05726 | 42.85916 | 36976 ft | 459 kts | 141° |
| 2026-04-14 21:38 | -11.10485 | 42.90252 | 36983 ft | 459 kts | 142° |
| 2026-04-14 21:38 | -11.15241 | 42.94585 | 36976 ft | 458 kts | 142° |
| 2026-04-14 21:39 | -11.19989 | 42.98915 | 36978 ft | 458 kts | 142° |
| 2026-04-14 21:39 | -11.24733 | 43.03241 | 36973 ft | 457 kts | 141° |
| 2026-04-14 21:40 | -11.29469 | 43.07564 | 36976 ft | 457 kts | 141° |
| 2026-04-14 21:40 | -11.34208 | 43.11891 | 36985 ft | 457 kts | 141° |
| 2026-04-14 21:41 | -11.38917 | 43.16192 | 36993 ft | 458 kts | 141° |
| 2026-04-14 21:41 | -11.43663 | 43.20530 | 36995 ft | 458 kts | 141° |
| 2026-04-14 21:42 | -11.48413 | 43.24874 | 36990 ft | 459 kts | 141° |
| 2026-04-14 21:42 | -11.53298 | 43.29038 | 36955 ft | 454 kts | 158° |
| 2026-04-14 21:43 | -11.56251 | 43.30033 | 37005 ft | 446 kts | 173° |
| 2026-04-14 21:43 | -11.59303 | 43.30576 | 36991 ft | 448 kts | 166° |
| 2026-04-14 21:43 | -11.62105 | 43.32003 | 37005 ft | 457 kts | 144° |
| 2026-04-14 21:43 | -11.64273 | 43.34391 | 36985 ft | 466 kts | 123° |
| 2026-04-14 21:44 | -11.66837 | 43.40496 | 36988 ft | 470 kts | 117° |
| 2026-04-14 21:44 | -11.69758 | 43.46456 | 36991 ft | 470 kts | 121° |
| 2026-04-14 21:45 | -11.72914 | 43.52309 | 36990 ft | 471 kts | 122° |
| 2026-04-14 21:45 | -11.76104 | 43.58165 | 36990 ft | 473 kts | 121° |
| 2026-04-14 21:46 | -11.79275 | 43.64043 | 36990 ft | 473 kts | 121° |
| 2026-04-14 21:46 | -11.81902 | 43.68944 | 36980 ft | 473 kts | 121° |
| 2026-04-14 21:47 | -11.83513 | 43.71956 | 36406 ft | 481 kts | 121° |
| 2026-04-14 21:47 | -11.85112 | 43.74945 | 35764 ft | 479 kts | 121° |
| 2026-04-14 21:47 | -11.86709 | 43.77934 | 34980 ft | 480 kts | 121° |
| 2026-04-14 21:47 | -11.88311 | 43.80932 | 34151 ft | 483 kts | 121° |
| 2026-04-14 21:48 | -11.89924 | 43.83951 | 33197 ft | 486 kts | 120° |
| 2026-04-14 21:48 | -11.91548 | 43.86990 | 32279 ft | 488 kts | 120° |
| 2026-04-14 21:48 | -11.93171 | 43.90029 | 31541 ft | 486 kts | 120° |
| 2026-04-14 21:48 | -11.94779 | 43.93042 | 30860 ft | 482 kts | 119° |
| 2026-04-14 21:49 | -11.96357 | 43.96001 | 30222 ft | 479 kts | 119° |
| 2026-04-14 21:49 | -11.97945 | 43.98978 | 29481 ft | 475 kts | 119° |
| 2026-04-14 21:49 | -11.99516 | 44.01922 | 28786 ft | 470 kts | 119° |
| 2026-04-14 21:49 | -12.01070 | 44.04838 | 28106 ft | 464 kts | 119° |
| 2026-04-14 21:50 | -12.02606 | 44.07720 | 27451 ft | 459 kts | 119° |
| 2026-04-14 21:50 | -12.04124 | 44.10567 | 26807 ft | 454 kts | 119° |
| 2026-04-14 21:50 | -12.05623 | 44.13382 | 26170 ft | 449 kts | 119° |
| 2026-04-14 21:50 | -12.07109 | 44.16171 | 25517 ft | 445 kts | 119° |
| 2026-04-14 21:51 | -12.08580 | 44.18935 | 24867 ft | 441 kts | 119° |
| 2026-04-14 21:51 | -12.10037 | 44.21672 | 24217 ft | 437 kts | 119° |
| 2026-04-14 21:51 | -12.11486 | 44.24394 | 23574 ft | 434 kts | 119° |
| 2026-04-14 21:51 | -12.12923 | 44.27095 | 22834 ft | 430 kts | 118° |
| 2026-04-14 21:52 | -12.14323 | 44.29728 | 22156 ft | 414 kts | 118° |
| 2026-04-14 21:52 | -12.15672 | 44.32265 | 21522 ft | 399 kts | 118° |
| 2026-04-14 21:52 | -12.16975 | 44.34716 | 20938 ft | 386 kts | 118° |
| 2026-04-14 21:52 | -12.18237 | 44.37089 | 20373 ft | 374 kts | 118° |
| 2026-04-14 21:53 | -12.19462 | 44.39395 | 19826 ft | 366 kts | 118° |
| 2026-04-14 21:53 | -12.20669 | 44.41667 | 19284 ft | 362 kts | 117° |
| 2026-04-14 21:53 | -12.21869 | 44.43926 | 18721 ft | 363 kts | 117° |
| 2026-04-14 21:53 | -12.23086 | 44.46221 | 18136 ft | 371 kts | 117° |
| 2026-04-14 21:54 | -12.24319 | 44.48545 | 17490 ft | 370 kts | 117° |
| 2026-04-14 21:54 | -12.25540 | 44.50846 | 16906 ft | 367 kts | 117° |
| 2026-04-14 21:54 | -12.26752 | 44.53132 | 16322 ft | 364 kts | 117° |
| 2026-04-14 21:54 | -12.27953 | 44.55396 | 15754 ft | 361 kts | 117° |
| 2026-04-14 21:55 | -12.29144 | 44.57641 | 15186 ft | 358 kts | 117° |
| 2026-04-14 21:55 | -12.30326 | 44.59871 | 14636 ft | 355 kts | 117° |
| 2026-04-14 21:55 | -12.31496 | 44.62078 | 14075 ft | 352 kts | 117° |
| 2026-04-14 21:55 | -12.32662 | 44.64279 | 13459 ft | 351 kts | 117° |
| 2026-04-14 21:56 | -12.33820 | 44.66466 | 12856 ft | 348 kts | 117° |
| 2026-04-14 21:56 | -12.34952 | 44.68603 | 12281 ft | 345 kts | 117° |
| 2026-04-14 21:56 | -12.36087 | 44.70747 | 11734 ft | 341 kts | 117° |
| 2026-04-14 21:56 | -12.37212 | 44.72873 | 11176 ft | 338 kts | 117° |
| 2026-04-14 21:57 | -12.38324 | 44.74974 | 10634 ft | 335 kts | 117° |
| 2026-04-14 21:57 | -12.39415 | 44.77035 | 10427 ft | 321 kts | 117° |
| 2026-04-14 21:57 | -12.40454 | 44.79000 | 10266 ft | 307 kts | 117° |
| 2026-04-14 21:57 | -12.41448 | 44.80878 | 10136 ft | 294 kts | 117° |
| 2026-04-14 21:58 | -12.42399 | 44.82676 | 10011 ft | 281 kts | 117° |
| 2026-04-14 21:58 | -12.43317 | 44.84412 | 9699 ft | 277 kts | 117° |
| 2026-04-14 21:58 | -12.44226 | 44.86134 | 9364 ft | 273 kts | 117° |
| 2026-04-14 21:58 | -12.45125 | 44.87835 | 9001 ft | 271 kts | 117° |
| 2026-04-14 21:59 | -12.46016 | 44.89522 | 8650 ft | 268 kts | 117° |
| 2026-04-14 21:59 | -12.46900 | 44.91197 | 8307 ft | 266 kts | 117° |
| 2026-04-14 21:59 | -12.47776 | 44.92855 | 7963 ft | 264 kts | 117° |
| 2026-04-14 21:59 | -12.48647 | 44.94506 | 7627 ft | 263 kts | 117° |
| 2026-04-14 22:00 | -12.49512 | 44.96144 | 7290 ft | 261 kts | 117° |
| 2026-04-14 22:00 | -12.50371 | 44.97773 | 6962 ft | 259 kts | 118° |
| 2026-04-14 22:00 | -12.51226 | 44.99394 | 6644 ft | 258 kts | 118° |
| 2026-04-14 22:00 | -12.52076 | 45.01004 | 6315 ft | 257 kts | 117° |
| 2026-04-14 22:01 | -12.52923 | 45.02609 | 5958 ft | 256 kts | 118° |
| 2026-04-14 22:01 | -12.53766 | 45.04209 | 5617 ft | 255 kts | 118° |
| 2026-04-14 22:01 | -12.54604 | 45.05799 | 5387 ft | 249 kts | 118° |
| 2026-04-14 22:01 | -12.55412 | 45.07332 | 5236 ft | 241 kts | 118° |
| 2026-04-14 22:02 | -12.56191 | 45.08809 | 5130 ft | 231 kts | 118° |
| 2026-04-14 22:02 | -12.56939 | 45.10228 | 5030 ft | 222 kts | 118° |
| 2026-04-14 22:02 | -12.57652 | 45.11588 | 4936 ft | 212 kts | 118° |
| 2026-04-14 22:02 | -12.58333 | 45.12884 | 4846 ft | 202 kts | 118° |
| 2026-04-14 22:03 | -12.58989 | 45.14142 | 4657 ft | 198 kts | 118° |
| 2026-04-14 22:03 | -12.59668 | 45.15352 | 4420 ft | 195 kts | 130° |
| 2026-04-14 22:03 | -12.60749 | 45.16133 | 4219 ft | 188 kts | 150° |
| 2026-04-14 22:03 | -12.61858 | 45.16822 | 3993 ft | 186 kts | 147° |
| 2026-04-14 22:04 | -12.62947 | 45.17508 | 3793 ft | 182 kts | 149° |
| 2026-04-14 22:04 | -12.64028 | 45.18162 | 3594 ft | 181 kts | 150° |
| 2026-04-14 22:04 | -12.65109 | 45.18812 | 3392 ft | 178 kts | 150° |
| 2026-04-14 22:04 | -12.66144 | 45.19432 | 3244 ft | 169 kts | 150° |
| 2026-04-14 22:05 | -12.67167 | 45.20041 | 3035 ft | 172 kts | 150° |
| 2026-04-14 22:05 | -12.68183 | 45.20643 | 2794 ft | 165 kts | 151° |
| 2026-04-14 22:05 | -12.69141 | 45.21212 | 2590 ft | 153 kts | 150° |
| 2026-04-14 22:05 | -12.69990 | 45.21717 | 2389 ft | 135 kts | 151° |
| 2026-04-14 22:06 | -12.70759 | 45.22174 | 2202 ft | 121 kts | 152° |
| 2026-04-14 22:06 | -12.71487 | 45.22606 | 2086 ft | 132 kts | 152° |
| 2026-04-14 22:06 | -12.72384 | 45.23137 | 1863 ft | 155 kts | 150° |
| 2026-04-14 22:06 | -12.73333 | 45.23702 | 1658 ft | 162 kts | 150° |
| 2026-04-14 22:07 | -12.74320 | 45.24290 | 1432 ft | 167 kts | 150° |
| 2026-04-14 22:07 | -12.75316 | 45.24896 | 1268 ft | 163 kts | 148° |
| 2026-04-14 22:07 | -12.76243 | 45.25491 | 1126 ft | 153 kts | 150° |
| 2026-04-14 22:07 | -12.77141 | 45.26029 | 1001 ft | 148 kts | 151° |
| 2026-04-14 22:08 | -12.78037 | 45.26534 | 761 ft | 146 kts | 152° |
| 2026-04-14 22:08 | -12.78934 | 45.27044 | 425 ft | 148 kts | 151° |
| 2026-04-14 22:08 | -12.79818 | 45.27563 | 200 ft | 143 kts | 150° |
| 2026-04-14 22:08 | -12.80652 | 45.28048 | 43 ft | 128 kts | 148° |
| 2026-04-14 22:09 | -12.81189 | 45.28372 | 56 ft | 63 kts | 149° |
| 2026-04-14 22:09 | -12.81511 | 45.28565 | 66 ft | 41 kts | 153° |
| 2026-04-14 22:09 | -12.81651 | 45.28613 | 61 ft | 15 kts | 152° |
| 2026-04-14 22:09 | -12.81630 | 45.28630 | 68 ft | 7 kts | 326° |
| 2026-04-14 22:10 | -12.81569 | 45.28586 | 66 ft | 16 kts | 329° |
| 2026-04-14 22:10 | -12.81452 | 45.28515 | 62 ft | 23 kts | 329° |
| 2026-04-14 22:10 | -12.81293 | 45.28424 | 59 ft | 29 kts | 332° |
| 2026-04-14 22:10 | -12.81095 | 45.28312 | 54 ft | 36 kts | 330° |
| 2026-04-14 22:11 | -12.80939 | 45.28221 | 47 ft | 10 kts | 329° |
| 2026-04-14 22:11 | -12.80824 | 45.28150 | 47 ft | 29 kts | 329° |
| 2026-04-14 22:11 | -12.80690 | 45.28074 | 45 ft | 8 kts | 345° |
| 2026-04-14 22:11 | -12.80636 | 45.28104 | 46 ft | 11 kts | 58° |
| 2026-04-14 22:12 | -12.80567 | 45.28125 | 45 ft | 9 kts | 337° |
| 2026-04-14 22:12 | -12.80546 | 45.28113 | 43 ft | 0 kts | 328° |